createdAt,value
2023-09-17T00:01:55.464Z,21.36
2023-09-17T00:06:57.457Z,20.60
2023-09-17T00:11:59.561Z,20.73
2023-09-17T00:17:01.491Z,21.19
2023-09-17T00:22:04.383Z,20.89
2023-09-17T00:27:06.554Z,20.38
2023-09-17T00:32:08.635Z,20.80
2023-09-17T00:37:13.041Z,20.96
2023-09-17T00:42:17.284Z,20.63
2023-09-17T00:47:19.102Z,20.24
2023-09-17T00:52:22.278Z,20.17
2023-09-17T00:57:24.391Z,20.39
2023-09-17T01:02:27.924Z,20.67
2023-09-17T01:07:30.043Z,20.87
2023-09-17T01:12:32.874Z,20.52
2023-09-17T01:17:35.865Z,20.15
2023-09-17T01:22:45.483Z,20.68
2023-09-17T01:27:47.484Z,20.56
2023-09-17T01:32:49.358Z,19.96
2023-09-17T01:37:56.211Z,20.34
2023-09-17T01:42:59.198Z,20.31
2023-09-17T01:48:02.356Z,20.49
2023-09-17T01:53:05.103Z,20.02
2023-09-17T01:58:07.057Z,20.59
2023-09-17T02:03:09.855Z,20.37
2023-09-17T02:08:11.684Z,19.91
2023-09-17T02:13:13.523Z,20.38
2023-09-17T02:18:15.611Z,20.38
2023-09-17T02:23:18.410Z,20.00
2023-09-17T02:28:20.311Z,20.45
2023-09-17T02:33:22.257Z,20.50
2023-09-17T02:38:24.075Z,19.71
2023-09-17T02:43:26.237Z,19.69
2023-09-17T02:48:28.068Z,20.17
2023-09-17T02:53:29.909Z,20.03
2023-09-17T02:58:31.709Z,18.86
2023-09-17T03:03:33.526Z,19.75
2023-09-17T03:08:35.531Z,20.07
2023-09-17T03:13:37.665Z,19.34
2023-09-17T03:18:40.083Z,19.41
2023-09-17T03:23:41.814Z,20.00
2023-09-17T03:28:43.604Z,19.51
2023-09-17T03:33:45.540Z,19.40
2023-09-17T03:38:47.421Z,19.82
2023-09-17T03:43:49.591Z,19.64
2023-09-17T03:48:51.649Z,18.66
2023-09-17T03:53:53.730Z,19.33
2023-09-17T03:58:56.064Z,19.70
2023-09-17T04:03:58.026Z,19.08
2023-09-17T04:09:00.498Z,19.60
2023-09-17T04:14:02.299Z,19.72
2023-09-17T04:19:04.348Z,19.41
2023-09-17T04:24:06.557Z,19.50
2023-09-17T04:29:11.719Z,19.88
2023-09-17T04:34:16.809Z,19.29
2023-09-17T04:39:18.580Z,19.04
2023-09-17T04:44:20.331Z,19.48
2023-09-17T04:49:22.102Z,19.41
2023-09-17T04:54:25.058Z,18.57
2023-09-17T04:59:29.008Z,18.60
2023-09-17T05:04:30.834Z,18.39
2023-09-17T05:09:32.653Z,18.64
2023-09-17T05:14:34.385Z,18.58
2023-09-17T05:19:36.722Z,19.58
2023-09-17T05:24:39.102Z,19.27
2023-09-17T05:29:42.146Z,19.05
2023-09-17T05:34:45.570Z,18.54
2023-09-17T05:39:47.393Z,19.12
2023-09-17T05:44:49.259Z,19.40
2023-09-17T05:49:51.148Z,19.56
2023-09-17T05:54:53.104Z,19.87
2023-09-17T05:59:54.899Z,19.27
2023-09-17T06:04:59.033Z,18.97
2023-09-17T06:10:02.523Z,19.45
2023-09-17T06:15:05.655Z,19.84
2023-09-17T06:20:08.165Z,19.17
2023-09-17T06:25:10.020Z,19.51
2023-09-17T06:30:12.592Z,20.08
2023-09-17T06:35:14.821Z,20.09
2023-09-17T06:40:17.054Z,19.72
2023-09-17T06:45:19.455Z,20.00
2023-09-17T06:50:21.276Z,20.16
2023-09-17T06:55:23.113Z,20.34
2023-09-17T07:00:24.935Z,20.37
2023-09-17T07:05:26.885Z,20.72
2023-09-17T07:10:28.823Z,20.22
2023-09-17T07:15:31.568Z,20.40
2023-09-17T07:20:33.392Z,20.88
2023-09-17T07:25:35.256Z,21.01
2023-09-17T07:30:38.176Z,20.20
2023-09-17T07:35:40.762Z,20.35
2023-09-17T07:40:42.680Z,20.47
2023-09-17T07:45:44.509Z,20.48
2023-09-17T07:50:55.391Z,20.66
2023-09-17T07:55:57.890Z,21.27
2023-09-17T08:00:59.762Z,21.19
2023-09-17T08:06:01.611Z,21.03
2023-09-17T08:11:04.911Z,21.79
2023-09-17T08:16:06.820Z,21.49
2023-09-17T08:21:08.603Z,21.78
2023-09-17T08:26:12.143Z,21.96
2023-09-17T08:31:13.903Z,22.53
2023-09-17T08:36:16.293Z,22.38
2023-09-17T08:41:24.182Z,22.84
2023-09-17T08:46:27.903Z,22.91
2023-09-17T08:51:34.453Z,22.65
2023-09-17T08:56:40.156Z,23.30
2023-09-17T09:01:45.888Z,23.09
2023-09-17T09:06:48.944Z,22.91
2023-09-17T09:11:51.078Z,23.00
2023-09-17T09:16:53.570Z,23.31
2023-09-17T09:21:55.517Z,22.71
2023-09-17T09:26:59.808Z,22.84
2023-09-17T09:32:01.924Z,22.38
2023-09-17T09:37:11.206Z,23.31
2023-09-17T09:42:14.530Z,23.55
2023-09-17T09:47:16.454Z,23.22
2023-09-17T09:52:19.394Z,22.98
2023-09-17T09:57:21.628Z,22.87
2023-09-17T10:02:23.573Z,23.83
2023-09-17T10:07:26.711Z,23.98
2023-09-17T10:12:28.847Z,24.23
2023-09-17T10:17:31.642Z,22.93
2023-09-17T10:22:36.657Z,24.44
2023-09-17T10:27:39.206Z,24.13
2023-09-17T10:32:42.948Z,24.44
2023-09-17T10:37:47.512Z,24.05
2023-09-17T10:42:52.343Z,24.66
2023-09-17T10:47:59.111Z,24.34
2023-09-17T10:53:01.014Z,24.56
2023-09-17T10:58:39.573Z,24.72
2023-09-17T11:03:46.249Z,24.89
2023-09-17T11:08:48.546Z,25.01
2023-09-17T11:13:52.468Z,24.09
2023-09-17T11:19:09.828Z,24.85
2023-09-17T11:24:13.844Z,25.08
2023-09-17T11:29:18.741Z,24.18
2023-09-17T11:34:22.285Z,25.42
2023-09-17T11:39:25.438Z,24.53
2023-09-17T11:44:27.942Z,25.47
2023-09-17T11:49:30.447Z,25.40
2023-09-17T11:54:35.486Z,25.26
2023-09-17T11:59:41.186Z,25.17
2023-09-17T12:04:45.396Z,24.70
2023-09-17T12:09:48.941Z,25.61
2023-09-17T12:14:51.555Z,25.81
2023-09-17T12:20:02.256Z,25.81
2023-09-17T12:25:09.803Z,25.58
2023-09-17T12:30:12.692Z,25.91
2023-09-17T12:35:15.004Z,26.00
2023-09-17T12:40:17.082Z,26.17
2023-09-17T12:45:20.818Z,26.20
2023-09-17T12:50:23.282Z,26.06
2023-09-17T12:55:28.196Z,25.92
2023-09-17T13:00:30.813Z,26.60
2023-09-17T13:05:32.730Z,25.32
2023-09-17T13:10:35.769Z,25.87
2023-09-17T13:15:37.726Z,26.10
2023-09-17T13:20:39.953Z,26.02
2023-09-17T13:25:42.685Z,26.57
2023-09-17T13:30:45.039Z,26.95
2023-09-17T13:35:52.567Z,26.33
2023-09-17T13:40:55.563Z,26.48
2023-09-17T13:46:01.067Z,26.65
2023-09-17T13:51:03.171Z,27.05
2023-09-17T13:56:06.026Z,26.91
2023-09-17T14:01:09.062Z,26.28
2023-09-17T14:06:11.596Z,26.76
2023-09-17T14:11:13.977Z,26.88
2023-09-17T14:16:16.516Z,26.52
2023-09-17T14:21:18.805Z,27.36
2023-09-17T14:26:22.193Z,27.35
2023-09-17T14:31:24.649Z,27.08
2023-09-17T14:36:26.964Z,26.47
2023-09-17T14:41:31.281Z,27.09
2023-09-17T14:46:35.844Z,26.97
2023-09-17T14:51:38.178Z,26.83
2023-09-17T14:56:40.197Z,26.58
2023-09-17T15:01:59.074Z,26.98
2023-09-17T15:07:03.200Z,26.29
2023-09-17T15:12:05.647Z,26.40
2023-09-17T15:17:07.867Z,26.74
2023-09-17T15:22:10.211Z,26.47
2023-09-17T15:27:13.246Z,26.62
2023-09-17T15:32:15.554Z,26.23
2023-09-17T15:37:18.037Z,26.55
2023-09-17T15:42:20.885Z,26.42
2023-09-17T15:47:23.508Z,26.33
2023-09-17T15:52:25.660Z,26.23
2023-09-17T15:57:28.419Z,25.96
2023-09-17T16:02:31.956Z,26.32
2023-09-17T16:07:35.851Z,26.21
2023-09-17T16:12:38.346Z,26.19
2023-09-17T16:17:42.690Z,26.15
2023-09-17T16:22:45.271Z,26.11
2023-09-17T16:27:49.073Z,25.82
2023-09-17T16:32:53.121Z,25.67
2023-09-17T16:37:55.463Z,25.62
2023-09-17T16:43:08.444Z,25.63
2023-09-17T16:48:12.612Z,25.30
2023-09-17T16:53:15.173Z,25.26
2023-09-17T16:58:20.298Z,25.36
2023-09-17T17:03:22.893Z,25.13
2023-09-17T17:08:27.037Z,24.83
2023-09-17T17:13:30.748Z,24.64
2023-09-17T17:18:33.251Z,24.87
2023-09-17T17:23:35.809Z,24.72
2023-09-17T17:28:38.028Z,24.59
2023-09-17T17:33:41.179Z,24.73
2023-09-17T17:38:44.280Z,24.88
2023-09-17T17:43:46.728Z,24.24
2023-09-17T17:48:50.816Z,23.85
2023-09-17T17:53:53.467Z,24.13
2023-09-17T17:58:56.325Z,24.26
2023-09-17T18:03:58.714Z,23.85
2023-09-17T18:09:01.898Z,23.89
2023-09-17T18:14:04.733Z,24.40
2023-09-17T18:19:07.573Z,24.44
2023-09-17T18:24:11.692Z,23.86
2023-09-17T18:29:14.673Z,23.78
2023-09-17T18:34:17.357Z,24.18
2023-09-17T18:39:20.647Z,23.88
2023-09-17T18:44:25.047Z,24.36
2023-09-17T18:49:28.307Z,24.30
2023-09-17T18:54:32.732Z,23.68
2023-09-17T18:59:38.483Z,23.54
2023-09-17T19:04:41.400Z,23.99
2023-09-17T19:09:44.779Z,23.81
2023-09-17T19:14:48.347Z,23.31
2023-09-17T19:19:51.170Z,23.67
2023-09-17T19:24:56.394Z,23.70
2023-09-17T19:29:59.361Z,23.20
2023-09-17T19:35:02.181Z,23.20
2023-09-17T19:40:05.383Z,23.52
2023-09-17T19:45:11.422Z,23.39
2023-09-17T19:50:15.636Z,22.97
2023-09-17T19:55:18.782Z,22.99
2023-09-17T20:00:21.780Z,23.53
2023-09-17T20:05:25.311Z,23.25
2023-09-17T20:10:29.345Z,23.29
2023-09-17T20:15:31.902Z,23.69
2023-09-17T20:20:34.149Z,23.17
2023-09-17T20:25:37.839Z,22.89
2023-09-17T20:30:40.661Z,23.19
2023-09-17T20:35:43.075Z,23.05
2023-09-17T20:40:45.140Z,22.76
2023-09-17T20:45:47.501Z,22.57
2023-09-17T20:50:49.838Z,23.13
2023-09-17T20:55:54.807Z,22.95
2023-09-17T21:00:56.771Z,22.48
2023-09-17T21:05:58.604Z,22.69
2023-09-17T21:11:00.468Z,23.14
2023-09-17T21:16:02.282Z,22.92
2023-09-17T21:21:04.321Z,22.68
2023-09-17T21:26:12.301Z,22.90
2023-09-17T21:31:14.252Z,22.77
2023-09-17T21:36:16.053Z,22.62
2023-09-17T21:41:18.187Z,23.04
2023-09-17T21:46:20.066Z,22.94
2023-09-17T21:51:21.884Z,22.61
2023-09-17T21:56:23.708Z,22.56
2023-09-17T22:01:26.424Z,22.53
2023-09-17T22:06:28.250Z,22.40
2023-09-17T22:11:30.183Z,22.11
2023-09-17T22:16:36.661Z,22.67
2023-09-17T22:21:38.540Z,22.76
2023-09-17T22:26:40.348Z,22.26
2023-09-17T22:31:42.095Z,22.32
2023-09-17T22:36:44.285Z,22.48
2023-09-17T22:41:46.029Z,22.27
2023-09-17T22:46:47.756Z,21.91
2023-09-17T22:51:49.543Z,21.89
2023-09-17T22:56:52.602Z,21.99
2023-09-17T23:01:54.598Z,21.96
2023-09-17T23:06:56.399Z,22.09
2023-09-17T23:11:58.103Z,22.17
2023-09-17T23:16:59.916Z,22.07
2023-09-17T23:22:01.792Z,21.99
2023-09-17T23:27:03.959Z,22.44
2023-09-17T23:32:06.235Z,22.31
2023-09-17T23:37:08.371Z,21.89
2023-09-17T23:42:11.871Z,21.72
2023-09-17T23:47:13.751Z,22.36
2023-09-17T23:52:15.643Z,21.99
2023-09-17T23:57:17.684Z,21.93
